createdAt,value
2023-05-02T00:01:22.339Z,38.87
2023-05-02T00:03:56.228Z,37.03
2023-05-02T00:06:29.694Z,34.70
2023-05-02T00:09:05.179Z,37.17
2023-05-02T00:11:38.685Z,39.03
2023-05-02T00:14:12.613Z,32.37
2023-05-02T00:16:46.202Z,39.57
2023-05-02T00:19:19.523Z,31.73
2023-05-02T00:21:53.652Z,33.00
2023-05-02T00:24:29.129Z,32.20
2023-05-02T00:27:03.024Z,28.17
2023-05-02T00:29:36.884Z,35.70
2023-05-02T00:32:11.796Z,31.77
2023-05-02T00:34:46.407Z,38.73
2023-05-02T00:37:20.044Z,30.57
2023-05-02T00:39:54.993Z,31.00
2023-05-02T00:42:28.179Z,32.67
2023-05-02T00:45:01.165Z,36.30
2023-05-02T00:47:34.728Z,34.83
2023-05-02T00:50:08.965Z,32.63
2023-05-02T00:52:42.854Z,34.90
2023-05-02T00:55:18.683Z,33.07
2023-05-02T00:57:52.621Z,34.10
2023-05-02T01:00:28.405Z,35.80
2023-05-02T01:03:14.668Z,34.17
2023-05-02T01:05:59.177Z,38.80
2023-05-02T01:08:40.044Z,33.63
2023-05-02T01:11:21.541Z,32.63
2023-05-02T01:13:57.582Z,34.67
2023-05-02T01:16:32.214Z,37.33
2023-05-02T01:19:09.703Z,36.07
2023-05-02T01:21:45.815Z,28.50
2023-05-02T01:24:29.278Z,35.50
2023-05-02T01:27:19.500Z,34.37
2023-05-02T01:29:57.224Z,35.00
2023-05-02T01:32:32.163Z,34.77
2023-05-02T01:35:09.053Z,41.40
2023-05-02T01:37:44.004Z,42.00
2023-05-02T01:40:21.738Z,36.10
2023-05-02T01:42:56.901Z,40.10
2023-05-02T01:45:33.818Z,33.37
2023-05-02T06:44:37.561Z,40.70
2023-05-02T06:47:12.134Z,36.93
2023-05-02T06:49:45.500Z,36.50
2023-05-02T06:55:06.357Z,41.23
2023-05-02T06:57:42.363Z,38.40
2023-05-02T07:00:18.749Z,33.80
2023-05-02T07:05:52.876Z,41.40
2023-05-02T07:08:27.564Z,30.83
2023-05-02T07:11:03.706Z,33.40
2023-05-02T07:13:36.895Z,36.87
2023-05-02T07:16:14.492Z,35.10
2023-05-02T07:18:48.488Z,36.57
2023-05-02T07:22:31.118Z,37.67
2023-05-02T07:28:10.413Z,41.57
2023-05-02T07:30:43.890Z,33.70
2023-05-02T07:33:21.241Z,45.27
2023-05-02T07:35:55.639Z,35.40
2023-05-02T07:38:29.507Z,45.10
2023-05-02T07:41:04.840Z,43.57
2023-05-02T07:43:39.713Z,38.37
2023-05-02T07:49:33.090Z,41.97
2023-05-02T07:52:07.017Z,40.93
2023-05-02T07:55:02.653Z,36.23
2023-05-02T07:57:45.244Z,36.70
2023-05-02T08:00:26.301Z,37.30
2023-05-02T08:03:01.071Z,34.53
2023-05-02T08:05:43.816Z,37.53
2023-05-02T08:08:22.211Z,31.03
2023-05-02T08:11:00.083Z,41.40
2023-05-02T08:13:39.076Z,37.57
2023-05-02T08:16:14.055Z,43.13
2023-05-02T08:18:48.370Z,37.60
2023-05-02T08:21:40.752Z,44.23
2023-05-02T08:24:17.833Z,40.07
2023-05-02T08:26:55.793Z,39.17
2023-05-02T08:29:29.688Z,36.33
2023-05-02T08:32:10.457Z,38.47
2023-05-02T08:34:45.220Z,35.50
2023-05-02T08:37:33.354Z,37.80
2023-05-02T08:40:12.086Z,38.73
2023-05-02T08:42:49.718Z,45.63
2023-05-02T08:45:28.014Z,41.90
2023-05-02T08:48:04.624Z,38.33
2023-05-02T08:50:42.914Z,37.83
2023-05-02T08:53:21.077Z,41.97
2023-05-02T08:55:55.656Z,39.47
2023-05-02T08:58:33.030Z,47.97
2023-05-02T09:01:18.543Z,44.37
2023-05-02T09:03:58.339Z,48.83
2023-05-02T09:06:34.035Z,42.27
2023-05-02T09:09:12.933Z,43.23
2023-05-02T09:11:51.927Z,44.50
2023-05-02T09:14:30.612Z,41.60
2023-05-02T09:17:11.463Z,45.33
2023-05-02T09:19:46.128Z,43.50
2023-05-02T09:22:36.202Z,42.37
2023-05-02T09:25:13.725Z,50.23
2023-05-02T09:28:03.754Z,46.13
2023-05-02T09:30:40.966Z,43.93
2023-05-02T09:33:16.974Z,49.27
2023-05-02T09:36:02.630Z,51.00
2023-05-02T09:38:42.230Z,46.40
2023-05-02T09:41:19.203Z,53.10
2023-05-02T09:44:03.545Z,45.63
2023-05-02T09:46:46.184Z,51.60
2023-05-02T09:49:23.279Z,41.57
2023-05-02T09:52:16.134Z,41.27
2023-05-02T09:54:52.853Z,42.87
2023-05-02T09:57:45.975Z,49.53
2023-05-02T10:00:23.791Z,45.80
2023-05-02T10:03:00.004Z,44.43
2023-05-02T10:05:38.287Z,48.83
2023-05-02T10:08:13.560Z,44.93
2023-05-02T10:10:50.883Z,48.33
2023-05-02T10:13:33.475Z,43.53
2023-05-02T10:16:10.338Z,55.80
2023-05-02T10:19:03.107Z,45.57
2023-05-02T10:21:39.261Z,47.90
2023-05-02T10:24:13.766Z,51.50
2023-05-02T10:26:50.858Z,50.33
2023-05-02T10:29:38.469Z,46.80
2023-05-02T10:32:20.540Z,41.47
2023-05-02T10:35:02.237Z,54.73
2023-05-02T10:37:49.369Z,43.07
2023-05-02T10:40:25.305Z,37.97
2023-05-02T10:43:08.138Z,40.47
2023-05-02T10:45:48.281Z,33.93
2023-05-02T10:48:26.857Z,47.67
2023-05-02T10:51:02.610Z,46.43
2023-05-02T10:53:43.100Z,38.43
2023-05-02T10:56:23.341Z,33.33
2023-05-02T10:59:33.810Z,42.33
2023-05-02T11:02:54.228Z,45.83
2023-05-02T11:05:30.101Z,35.73
2023-05-02T11:08:46.112Z,41.53
2023-05-02T11:11:47.687Z,32.43
2023-05-02T11:15:01.457Z,36.17
2023-05-02T11:18:09.998Z,40.50
2023-05-02T11:20:44.770Z,38.43
2023-05-02T11:23:29.265Z,38.73
2023-05-02T11:26:06.350Z,37.17
2023-05-02T11:28:57.172Z,41.17
2023-05-02T11:32:05.629Z,34.57
2023-05-02T11:34:53.967Z,42.20
2023-05-02T11:37:32.284Z,42.93
2023-05-02T11:40:26.386Z,37.03
2023-05-02T11:43:05.536Z,40.37
2023-05-02T11:45:43.932Z,42.17
2023-05-02T11:48:20.836Z,47.70
2023-05-02T11:51:01.111Z,39.87
2023-05-02T11:53:39.181Z,41.97
2023-05-02T11:56:12.985Z,41.90
2023-05-02T11:59:06.075Z,35.60
2023-05-02T12:01:45.057Z,38.13
2023-05-02T12:04:25.132Z,35.90
2023-05-02T12:07:10.210Z,39.20
2023-05-02T12:10:00.305Z,40.07
2023-05-02T12:12:37.875Z,43.30
2023-05-02T12:15:17.639Z,40.17
2023-05-02T12:17:59.350Z,44.93
2023-05-02T12:20:40.439Z,47.80
2023-05-02T12:23:28.272Z,46.50
2023-05-02T12:26:22.824Z,42.03
2023-05-02T12:29:01.403Z,39.33
2023-05-02T12:31:38.177Z,46.47
2023-05-02T12:34:15.784Z,40.43
2023-05-02T12:36:51.544Z,46.37
2023-05-02T12:39:39.912Z,44.77
2023-05-02T12:42:16.113Z,42.83
2023-05-02T12:44:54.296Z,39.33
2023-05-02T12:47:31.596Z,43.37
2023-05-02T12:50:07.560Z,44.67
2023-05-02T12:53:04.683Z,43.10
2023-05-02T12:55:44.892Z,41.47
2023-05-02T12:58:31.724Z,46.47
2023-05-02T13:01:08.563Z,50.40
2023-05-02T13:03:47.053Z,42.53
2023-05-02T13:06:28.082Z,44.00
2023-05-02T13:09:09.909Z,47.90
2023-05-02T13:11:46.480Z,54.93
2023-05-02T13:14:24.178Z,43.43
2023-05-02T13:17:02.553Z,49.03
2023-05-02T13:19:42.459Z,44.43
2023-05-02T13:22:25.643Z,49.43
2023-05-02T13:25:02.725Z,48.37
2023-05-02T13:27:40.613Z,46.87
2023-05-02T13:30:21.408Z,44.33
2023-05-02T13:32:57.538Z,49.73
2023-05-02T13:35:33.231Z,54.10
2023-05-02T13:38:13.294Z,53.03
2023-05-02T13:40:48.499Z,50.30
2023-05-02T13:43:28.858Z,51.27
2023-05-02T13:46:04.413Z,45.27
2023-05-02T13:48:41.686Z,44.03
2023-05-02T13:51:19.992Z,47.20
2023-05-02T13:54:00.625Z,48.53
2023-05-02T13:56:37.274Z,51.77
2023-05-02T13:59:15.710Z,58.20
2023-05-02T14:01:52.352Z,46.80
2023-05-02T14:04:29.590Z,50.83
2023-05-02T14:07:05.925Z,48.93
2023-05-02T14:09:43.081Z,51.13
2023-05-02T14:12:20.504Z,51.50
2023-05-02T14:14:57.535Z,45.17
2023-05-02T14:17:34.772Z,52.70
2023-05-02T14:20:09.928Z,49.57
2023-05-02T14:22:46.820Z,55.63
2023-05-02T14:25:24.602Z,54.93
2023-05-02T14:28:04.741Z,46.53
2023-05-02T14:30:42.479Z,49.57
2023-05-02T14:33:21.915Z,50.00
2023-05-02T14:36:11.249Z,47.03
2023-05-02T14:41:43.148Z,48.83
2023-05-02T14:44:19.604Z,50.20
2023-05-02T14:47:01.469Z,52.03
2023-05-02T14:49:40.692Z,49.93
2023-05-02T14:52:19.187Z,48.70
2023-05-02T14:54:56.505Z,46.70
2023-05-02T14:57:41.936Z,47.67
2023-05-02T15:00:27.484Z,42.47
2023-05-02T15:03:07.366Z,50.23
2023-05-02T15:05:43.368Z,45.70
2023-05-02T15:08:20.723Z,45.37
2023-05-02T15:10:56.393Z,55.20
2023-05-02T15:13:48.380Z,52.73
2023-05-02T15:16:24.876Z,50.90
2023-05-02T15:19:04.402Z,59.90
2023-05-02T15:21:41.604Z,61.27
2023-05-02T15:24:20.167Z,70.33
2023-05-02T15:26:55.710Z,72.00
2023-05-02T15:29:34.864Z,56.00
2023-05-02T15:32:20.082Z,53.63
2023-05-02T15:35:10.839Z,55.73
2023-05-02T15:37:49.410Z,55.47
2023-05-02T15:40:27.429Z,58.10
2023-05-02T15:43:04.564Z,54.60
2023-05-02T15:45:41.637Z,55.43
2023-05-02T15:48:21.825Z,51.43
2023-05-02T15:50:59.284Z,53.60
2023-05-02T15:53:38.511Z,51.47
2023-05-02T15:56:15.175Z,54.60
2023-05-02T15:58:51.279Z,50.70
2023-05-02T16:01:39.145Z,59.33
2023-05-02T16:04:13.052Z,58.93
2023-05-02T16:06:52.228Z,50.43
2023-05-02T16:09:36.063Z,52.80
2023-05-02T16:12:13.605Z,48.17
2023-05-02T16:14:47.971Z,52.87
2023-05-02T16:17:27.130Z,60.10
2023-05-02T16:20:03.576Z,56.23
2023-05-02T16:22:41.950Z,55.83
2023-05-02T16:25:19.392Z,54.47
2023-05-02T16:27:57.673Z,55.47
2023-05-02T16:30:35.159Z,54.20
2023-05-02T16:33:12.568Z,55.27
2023-05-02T16:35:48.174Z,56.50
2023-05-02T16:38:34.895Z,57.37
2023-05-02T16:41:21.979Z,56.27
2023-05-02T16:44:02.785Z,57.03
2023-05-02T16:46:48.904Z,52.50
2023-05-02T16:49:26.797Z,56.53
2023-05-02T16:52:04.673Z,56.73
2023-05-02T16:54:41.240Z,58.20
2023-05-02T16:57:21.254Z,52.63
2023-05-02T16:59:57.040Z,59.53
2023-05-02T17:02:31.370Z,62.60
2023-05-02T17:05:05.147Z,50.10
2023-05-02T17:07:41.970Z,56.70
2023-05-02T17:10:20.537Z,49.70
2023-05-02T17:13:00.129Z,51.20
2023-05-02T17:15:36.468Z,53.73
2023-05-02T17:18:13.422Z,51.93
2023-05-02T17:20:55.150Z,51.13
2023-05-02T17:23:32.171Z,59.23
2023-05-02T17:26:15.936Z,57.27
2023-05-02T17:28:52.875Z,58.17
2023-05-02T17:31:31.352Z,54.80
2023-05-02T17:34:06.241Z,59.13
2023-05-02T17:36:47.152Z,51.67
2023-05-02T17:39:24.374Z,57.37
2023-05-02T17:42:08.528Z,53.93
2023-05-02T17:44:42.292Z,64.60
2023-05-02T17:47:18.495Z,52.37
2023-05-02T17:49:57.857Z,59.70
2023-05-02T17:52:33.347Z,49.67
2023-05-02T17:55:08.244Z,56.10
2023-05-02T17:57:51.415Z,53.63
2023-05-02T18:00:27.954Z,54.37
2023-05-02T18:03:07.714Z,61.87
2023-05-02T18:05:49.363Z,60.23
2023-05-02T18:08:28.343Z,55.47
2023-05-02T18:11:06.836Z,63.60
2023-05-02T18:13:46.952Z,60.43
2023-05-02T18:16:26.871Z,59.43
2023-05-02T18:19:05.436Z,59.13
2023-05-02T18:21:40.540Z,58.73
2023-05-02T18:24:14.816Z,62.80
2023-05-02T18:26:48.960Z,64.30
2023-05-02T18:29:27.172Z,62.20
2023-05-02T18:32:03.313Z,58.77
2023-05-02T18:34:41.115Z,60.27
2023-05-02T18:37:17.003Z,59.37
2023-05-02T18:39:51.543Z,53.37
2023-05-02T18:42:26.756Z,61.40
2023-05-02T18:45:04.393Z,52.63
2023-05-02T18:47:39.783Z,55.93
2023-05-02T18:50:15.154Z,60.93
2023-05-02T18:52:52.539Z,53.83
2023-05-02T18:55:28.495Z,65.57
2023-05-02T18:58:05.827Z,60.60
2023-05-02T19:00:46.004Z,59.20
2023-05-02T19:03:21.817Z,58.07
2023-05-02T19:06:04.349Z,60.93
2023-05-02T19:08:39.666Z,58.57
2023-05-02T19:11:14.153Z,58.70
2023-05-02T19:13:52.490Z,54.80
2023-05-02T19:16:33.068Z,65.80
2023-05-02T19:19:10.135Z,61.73
2023-05-02T19:21:44.929Z,57.97
2023-05-02T19:24:21.521Z,59.83
2023-05-02T19:26:56.328Z,60.80
2023-05-02T19:29:33.098Z,56.30
2023-05-02T19:32:09.505Z,62.23
2023-05-02T19:34:49.842Z,62.83
2023-05-02T19:37:24.569Z,61.57
2023-05-02T19:40:00.785Z,59.23
2023-05-02T19:42:36.089Z,59.83
2023-05-02T19:45:15.662Z,58.23
2023-05-02T19:47:54.465Z,65.43
2023-05-02T19:50:31.172Z,56.90
2023-05-02T19:53:06.245Z,60.40
2023-05-02T19:55:47.986Z,60.43
2023-05-02T19:58:29.437Z,62.80
2023-05-02T20:01:09.509Z,59.63
2023-05-02T20:03:44.795Z,59.10
2023-05-02T20:06:20.671Z,57.90
2023-05-02T20:08:56.230Z,57.07
2023-05-02T20:11:32.658Z,56.63
2023-05-02T20:14:10.180Z,57.90
2023-05-02T20:16:48.449Z,55.77
2023-05-02T20:19:27.157Z,57.15
2023-05-02T20:22:03.426Z,55.20
2023-05-02T20:24:39.392Z,59.27
2023-05-02T20:27:21.591Z,62.50
2023-05-02T20:30:00.739Z,56.50
2023-05-02T20:32:34.200Z,54.27
2023-05-02T20:35:11.193Z,54.03
2023-05-02T20:37:48.084Z,49.80
2023-05-02T20:40:24.753Z,56.83
2023-05-02T20:43:13.735Z,56.07
2023-05-02T20:46:03.779Z,51.63
2023-05-02T20:48:42.382Z,60.90
2023-05-02T20:51:18.764Z,53.57
2023-05-02T20:53:52.468Z,56.10
2023-05-02T20:56:26.365Z,54.80
2023-05-02T20:59:01.386Z,60.93
2023-05-02T21:01:36.103Z,60.63
2023-05-02T21:04:13.138Z,55.40
2023-05-02T21:06:55.327Z,54.83
2023-05-02T21:09:33.018Z,54.50
2023-05-02T21:12:10.498Z,57.13
2023-05-02T21:14:49.326Z,53.33
2023-05-02T21:17:28.144Z,61.73
2023-05-02T21:20:02.100Z,60.70
2023-05-02T21:22:38.995Z,53.10
2023-05-02T21:25:20.827Z,58.60
2023-05-02T21:28:01.506Z,56.87
2023-05-02T21:30:38.572Z,54.37
2023-05-02T21:33:16.296Z,54.40
2023-05-02T21:35:53.683Z,58.70
2023-05-02T21:38:33.612Z,54.53
2023-05-02T21:41:11.538Z,57.03
2023-05-02T21:43:45.275Z,60.67
2023-05-02T21:46:25.004Z,62.50
2023-05-02T21:49:02.680Z,56.53
2023-05-02T21:51:37.309Z,58.30
2023-05-02T21:54:16.806Z,60.43
2023-05-02T21:56:53.355Z,58.33
2023-05-02T21:59:33.232Z,64.27
2023-05-02T22:02:08.250Z,68.77
2023-05-02T22:04:49.891Z,56.23
2023-05-02T22:07:29.433Z,55.33
2023-05-02T22:10:10.648Z,53.83
2023-05-02T22:12:46.927Z,60.73
2023-05-02T22:15:24.420Z,54.00
2023-05-02T22:18:00.348Z,63.33
2023-05-02T22:20:38.275Z,59.47
2023-05-02T22:23:18.438Z,56.10
2023-05-02T22:25:59.811Z,61.57
2023-05-02T22:28:34.713Z,58.97
2023-05-02T22:31:12.301Z,61.40
2023-05-02T22:36:44.724Z,61.80
2023-05-02T22:39:19.543Z,66.30
2023-05-02T22:41:54.777Z,64.57
2023-05-02T22:44:32.176Z,58.30
2023-05-02T22:47:12.197Z,61.93
2023-05-02T22:49:50.923Z,58.10
2023-05-02T22:52:28.681Z,57.30
2023-05-02T22:55:03.075Z,60.73
2023-05-02T22:57:41.139Z,52.83
2023-05-02T23:00:19.703Z,57.13
2023-05-02T23:03:02.933Z,58.03
2023-05-02T23:05:37.829Z,67.00
2023-05-02T23:08:12.996Z,60.20
2023-05-02T23:10:49.399Z,61.07
2023-05-02T23:13:28.086Z,57.10
2023-05-02T23:16:07.749Z,63.43
2023-05-02T23:18:42.250Z,55.73
2023-05-02T23:21:25.324Z,61.90
2023-05-02T23:24:04.144Z,59.53
2023-05-02T23:26:40.047Z,60.80
2023-05-02T23:29:21.512Z,66.97
2023-05-02T23:32:04.605Z,60.60
2023-05-02T23:34:45.226Z,53.40
2023-05-02T23:37:23.483Z,62.53
2023-05-02T23:40:02.116Z,47.40
2023-05-02T23:42:40.931Z,55.17
2023-05-02T23:45:23.187Z,49.73
2023-05-02T23:48:04.358Z,47.77
2023-05-02T23:50:42.109Z,47.63
2023-05-02T23:53:16.685Z,41.93
2023-05-02T23:55:52.570Z,51.30
2023-05-02T23:58:34.415Z,53.13
